Time;durP1;ratioP1;P1;durP2;ratioP2;P2;SDS_P1;SDS_P2;PMS_P1;PMS_P2;Temp;Humidity;BMP_temperature;BMP_pressure;BME280_temperature;BME280_humidity;BME280_pressure;Samples;Min_cycle;Max_cycle;Signal;HPM_P1;HPM_P2
2022/04/14 00:02:15;;;;;;;5.20;4.37;;;13.70;89.90;;;;;;5033119;28;20203;-68
2022/04/14 00:04:41;;;;;;;8.27;4.80;;;13.70;90.00;;;;;;5034245;28;20159;-67
2022/04/14 00:07:06;;;;;;;8.97;4.23;;;13.70;90.10;;;;;;5034482;28;20610;-66
2022/04/14 00:09:35;;;;;;;5.33;4.37;;;13.60;90.20;;;;;;5034209;28;20203;-66
2022/04/14 00:12:00;;;;;;;6.07;4.30;;;13.60;90.30;;;;;;5033909;28;20259;-67
2022/04/14 00:14:26;;;;;;;5.63;5.13;;;13.60;90.40;;;;;;5033928;28;20518;-67
2022/04/14 00:16:51;;;;;;;6.63;4.33;;;13.50;90.50;;;;;;5034275;28;20342;-66
2022/04/14 00:19:17;;;;;;;7.97;4.73;;;13.40;90.60;;;;;;5034129;28;20176;-66
2022/04/14 00:21:42;;;;;;;5.57;3.97;;;13.40;90.90;;;;;;5033774;28;20214;-67
2022/04/14 00:24:07;;;;;;;6.43;5.33;;;13.40;91.10;;;;;;5034282;28;20171;-67
2022/04/14 00:26:33;;;;;;;6.80;5.10;;;13.40;91.20;;;;;;5033959;28;20630;-67
2022/04/14 00:28:59;;;;;;;5.10;4.60;;;13.30;91.20;;;;;;5033959;28;20222;-68
2022/04/14 00:31:24;;;;;;;7.77;5.47;;;13.30;91.40;;;;;;5033568;28;20156;-66
2022/04/14 00:33:49;;;;;;;7.87;5.00;;;13.30;91.40;;;;;;5033810;28;20251;-66
2022/04/14 00:36:15;;;;;;;5.93;4.17;;;13.30;91.60;;;;;;5033605;28;20168;-66
2022/04/14 00:38:41;;;;;;;4.40;4.00;;;13.30;91.70;;;;;;5033609;28;20258;-67
2022/04/14 00:41:06;;;;;;;6.53;4.97;;;13.20;91.80;;;;;;5033513;28;20167;-67
2022/04/14 00:43:33;;;;;;;5.20;4.60;;;13.20;92.00;;;;;;5033512;28;20208;-67
2022/04/14 00:46:00;;;;;;;6.07;4.53;;;13.20;92.00;;;;;;5033634;28;20185;-67
2022/04/14 00:48:27;;;;;;;5.77;4.40;;;13.10;92.10;;;;;;5033647;28;20409;-66
2022/04/14 00:50:52;;;;;;;8.53;5.30;;;13.10;92.40;;;;;;5033376;28;20394;-67
2022/04/14 00:53:18;;;;;;;4.80;4.33;;;13.10;92.50;;;;;;5033145;28;20478;-67
2022/04/14 00:55:43;;;;;;;5.90;4.57;;;13.10;92.60;;;;;;5033178;28;20182;-67
2022/04/14 00:58:09;;;;;;;5.07;4.37;;;13.00;92.70;;;;;;5031735;28;20197;-68
2022/04/14 01:00:35;;;;;;;5.13;4.10;;;13.00;93.10;;;;;;5033198;28;20183;-66
2022/04/14 01:03:01;;;;;;;5.23;4.73;;;12.90;93.10;;;;;;5032945;28;20202;-67
2022/04/14 01:05:27;;;;;;;8.20;4.03;;;12.90;93.20;;;;;;5033321;28;20911;-66
2022/04/14 01:07:56;;;;;;;7.87;4.30;;;12.90;93.40;;;;;;5033148;28;20410;-67
2022/04/14 01:10:21;;;;;;;5.67;4.60;;;12.80;93.60;;;;;;5033152;28;20194;-66
2022/04/14 01:12:47;;;;;;;4.20;3.80;;;12.80;93.80;;;;;;5032918;28;20437;-67
2022/04/14 01:15:13;;;;;;;5.00;4.60;;;12.70;93.90;;;;;;5031691;28;20306;-67
2022/04/14 01:17:40;;;;;;;4.90;4.30;;;12.70;94.20;;;;;;5033117;28;20251;-67
2022/04/14 01:20:06;;;;;;;5.13;4.33;;;12.70;94.70;;;;;;5032690;28;20836;-66
2022/04/14 01:22:35;;;;;;;5.80;4.33;;;12.70;94.40;;;;;;5032293;28;20639;-66
2022/04/14 01:25:02;;;;;;;4.83;4.33;;;12.70;94.70;;;;;;5032645;28;20498;-66
2022/04/14 01:27:28;;;;;;;6.97;4.43;;;12.70;94.70;;;;;;5032646;28;20407;-66
2022/04/14 01:29:54;;;;;;;5.80;4.63;;;12.70;94.80;;;;;;5032720;28;20428;-67
2022/04/14 01:32:21;;;;;;;7.87;4.40;;;12.60;95.00;;;;;;5032249;28;20929;-66
2022/04/14 01:34:46;;;;;;;5.20;4.73;;;12.60;95.10;;;;;;5032127;28;20163;-67
2022/04/14 01:37:12;;;;;;;4.13;3.73;;;12.60;95.20;;;;;;5032195;28;20410;-68
2022/04/14 01:39:38;;;;;;;5.03;4.03;;;12.60;95.40;;;;;;5032636;28;20284;-66
2022/04/14 01:42:04;;;;;;;6.97;5.70;;;12.50;95.50;;;;;;5032077;28;20486;-66
2022/04/14 01:44:30;;;;;;;6.53;4.33;;;12.50;95.80;;;;;;5031731;28;20574;-67
2022/04/14 01:46:56;;;;;;;5.43;4.37;;;12.50;96.00;;;;;;5032332;28;20406;-68
2022/04/14 01:49:21;;;;;;;9.10;5.00;;;12.50;96.20;;;;;;5032106;28;20174;-66
2022/04/14 01:51:48;;;;;;;3.70;3.50;;;12.50;96.30;;;;;;5030470;28;20279;-67
2022/04/14 01:54:14;;;;;;;4.93;4.43;;;12.40;96.40;;;;;;5032264;28;20267;-66
2022/04/14 01:56:39;;;;;;;7.23;5.53;;;12.40;97.00;;;;;;5031788;28;20485;-66
2022/04/14 01:59:05;;;;;;;5.60;4.50;;;12.30;97.70;;;;;;5032223;28;20798;-67
2022/04/14 02:01:30;;;;;;;10.33;5.13;;;12.30;97.40;;;;;;5031745;28;20178;-67
2022/04/14 02:03:58;;;;;;;6.23;4.67;;;12.30;97.60;;;;;;5031924;28;20168;-67
2022/04/14 02:06:24;;;;;;;5.60;5.00;;;12.20;97.60;;;;;;5032021;28;20175;-66
2022/04/14 02:08:49;;;;;;;5.30;4.70;;;12.20;97.90;;;;;;5032154;28;20523;-67
2022/04/14 02:11:16;;;;;;;4.87;3.93;;;12.10;98.00;;;;;;5031888;28;20433;-67
2022/04/14 02:13:42;;;;;;;7.40;4.70;;;12.10;98.50;;;;;;5031698;28;20234;-67
2022/04/14 02:16:08;;;;;;;6.67;5.60;;;12.00;98.80;;;;;;5031742;28;20410;-67
2022/04/14 02:18:34;;;;;;;8.00;5.50;;;12.00;99.10;;;;;;5031598;28;21007;-68
2022/04/14 02:20:59;;;;;;;5.60;4.63;;;11.90;99.40;;;;;;5031655;28;20510;-66
2022/04/14 02:23:25;;;;;;;6.83;4.03;;;11.90;99.90;;;;;;5031125;28;20579;-67
2022/04/14 02:25:51;;;;;;;6.17;4.27;;;11.90;99.90;;;;;;5031132;28;20259;-67
2022/04/14 02:28:16;;;;;;;7.13;4.90;;;11.90;99.90;;;;;;5031221;28;20530;-67
2022/04/14 02:30:42;;;;;;;8.87;4.80;;;11.80;99.90;;;;;;5031238;28;20174;-67
2022/04/14 02:33:07;;;;;;;6.03;5.30;;;11.80;99.90;;;;;;5029655;28;20204;-66
2022/04/14 02:35:33;;;;;;;7.23;4.33;;;11.80;99.90;;;;;;5031123;28;20277;-67
2022/04/14 02:37:58;;;;;;;5.53;5.03;;;11.80;99.90;;;;;;5031458;28;20182;-67
2022/04/14 02:40:25;;;;;;;4.97;4.43;;;11.80;99.90;;;;;;5031444;28;20242;-67
2022/04/14 02:42:53;;;;;;;7.60;5.00;;;11.80;99.90;;;;;;5031194;28;20203;-68
2022/04/14 02:45:19;;;;;;;6.40;5.80;;;11.90;99.90;;;;;;5031261;28;20442;-67
2022/04/14 02:47:45;;;;;;;6.77;5.50;;;11.90;99.90;;;;;;5031237;28;20413;-66
2022/04/14 02:50:10;;;;;;;4.80;4.27;;;11.90;99.90;;;;;;5031272;28;20481;-68
2022/04/14 02:52:36;;;;;;;6.27;5.70;;;11.90;99.90;;;;;;5031020;28;20631;-67
2022/04/14 02:55:01;;;;;;;8.67;6.00;;;11.90;99.90;;;;;;5030010;28;20180;-68
2022/04/14 02:57:27;;;;;;;7.93;5.90;;;12.00;99.90;;;;;;5031291;28;20175;-68
2022/04/14 02:59:52;;;;;;;5.47;4.90;;;12.10;99.90;;;;;;5030029;28;20186;-67
2022/04/14 03:02:18;;;;;;;6.63;5.97;;;12.10;99.90;;;;;;5030900;28;20256;-67
2022/04/14 03:04:43;;;;;;;6.37;5.77;;;12.00;99.90;;;;;;5031019;28;20164;-68
2022/04/14 03:07:08;;;;;;;6.73;5.47;;;12.00;99.90;;;;;;5030995;28;20211;-67
2022/04/14 03:09:34;;;;;;;10.67;6.47;;;12.00;99.90;;;;;;5030898;28;20164;-67
2022/04/14 03:11:59;;;;;;;7.50;6.13;;;12.00;99.90;;;;;;5030910;28;20622;-68
2022/04/14 03:14:25;;;;;;;9.00;6.63;;;12.00;99.90;;;;;;5030855;28;20174;-69
2022/04/14 03:16:50;;;;;;;12.90;7.57;;;11.90;99.90;;;;;;5030597;28;20255;-66
2022/04/14 03:19:16;;;;;;;11.50;7.27;;;11.90;99.90;;;;;;5030595;28;20184;-68
2022/04/14 03:21:41;;;;;;;8.40;7.07;;;11.90;99.90;;;;;;5030134;28;20272;-68
2022/04/14 03:24:07;;;;;;;6.90;6.20;;;11.80;99.90;;;;;;5030593;28;20171;-67
2022/04/14 03:26:32;;;;;;;9.80;6.83;;;11.70;99.90;;;;;;5030602;28;20168;-67
2022/04/14 03:28:57;;;;;;;5.63;5.13;;;11.60;99.90;;;;;;5046271;22;20242;-71
2022/04/14 03:31:23;;;;;;;8.00;6.20;;;11.50;99.90;;;;;;5011489;28;20169;-71
2022/04/14 03:33:48;;;;;;;5.10;4.53;;;11.50;99.90;;;;;;5011585;28;20176;-70
2022/04/14 03:36:14;;;;;;;8.97;5.60;;;11.40;99.90;;;;;;5010130;28;20627;-71
2022/04/14 03:38:39;;;;;;;5.70;4.90;;;11.30;99.90;;;;;;5011572;28;20227;-71
2022/04/14 03:41:06;;;;;;;6.20;5.17;;;11.30;99.90;;;;;;5011619;28;20172;-70
2022/04/14 03:43:32;;;;;;;6.97;4.60;;;11.30;99.90;;;;;;5011455;28;20708;-71
2022/04/14 03:45:58;;;;;;;4.80;4.20;;;11.30;99.90;;;;;;5011359;28;20604;-71
2022/04/14 03:48:23;;;;;;;8.30;4.63;;;11.30;99.90;;;;;;5011485;28;20889;-72
2022/04/14 03:50:49;;;;;;;5.73;4.30;;;11.30;99.90;;;;;;5011559;28;20546;-71
2022/04/14 03:53:16;;;;;;;7.73;4.40;;;11.30;99.90;;;;;;5011454;28;20168;-71
2022/04/14 03:55:42;;;;;;;5.20;4.27;;;11.30;99.90;;;;;;5011452;28;20171;-71
2022/04/14 03:58:07;;;;;;;9.50;5.27;;;11.30;99.90;;;;;;5011408;28;20407;-70
2022/04/14 04:00:32;;;;;;;6.97;4.63;;;11.30;99.90;;;;;;5011411;28;20172;-71
2022/04/14 04:02:58;;;;;;;5.87;4.87;;;11.30;99.90;;;;;;5011318;28;20208;-72
2022/04/14 04:05:23;;;;;;;4.70;3.77;;;11.30;99.90;;;;;;5011468;28;20255;-70
2022/04/14 04:07:49;;;;;;;5.40;3.80;;;11.30;99.90;;;;;;5014310;28;20587;-70
2022/04/14 04:10:14;;;;;;;4.67;3.60;;;11.40;99.90;;;;;;5014861;28;20200;-70
2022/04/14 04:12:40;;;;;;;5.33;4.70;;;11.40;99.90;;;;;;5014911;28;20204;-71
2022/04/14 04:15:06;;;;;;;4.17;3.47;;;11.30;99.90;;;;;;5014725;28;20176;-71
2022/04/14 04:17:31;;;;;;;6.87;4.60;;;11.30;99.90;;;;;;5014887;28;20187;-71
2022/04/14 04:19:57;;;;;;;5.67;3.83;;;11.30;99.90;;;;;;5014743;28;20576;-71
2022/04/14 04:22:22;;;;;;;4.13;3.60;;;11.30;99.90;;;;;;5014652;28;20282;-71
2022/04/14 04:24:47;;;;;;;4.70;3.70;;;11.30;99.90;;;;;;5014590;28;20697;-71
2022/04/14 04:27:13;;;;;;;4.43;4.03;;;11.30;99.90;;;;;;5013654;28;20176;-70
2022/04/14 04:29:38;;;;;;;5.73;4.00;;;11.30;99.90;;;;;;5015145;28;20219;-71
2022/04/14 04:32:04;;;;;;;4.20;3.83;;;11.30;99.90;;;;;;5014691;28;20176;-70
2022/04/14 04:34:30;;;;;;;4.93;4.03;;;11.30;99.90;;;;;;5015983;28;20177;-70
2022/04/14 04:36:55;;;;;;;5.00;4.50;;;11.30;99.90;;;;;;5018598;28;20481;-70
2022/04/14 04:39:20;;;;;;;6.70;4.40;;;11.20;99.90;;;;;;5021889;28;20721;-71
2022/04/14 04:41:46;;;;;;;5.63;4.63;;;11.20;99.90;;;;;;5017933;28;20199;-71
2022/04/14 04:44:11;;;;;;;8.07;4.33;;;11.30;99.90;;;;;;5014854;28;20252;-72
2022/04/14 04:46:37;;;;;;;4.10;3.73;;;11.30;99.90;;;;;;5014403;28;20172;-71
2022/04/14 04:49:02;;;;;;;4.33;3.93;;;11.30;99.90;;;;;;5014294;28;20207;-71
2022/04/14 04:51:28;;;;;;;4.90;4.50;;;11.40;99.90;;;;;;5014418;28;20204;-71
2022/04/14 04:53:54;;;;;;;12.30;3.80;;;11.50;99.90;;;;;;5014770;28;20168;-70
2022/04/14 04:56:19;;;;;;;7.30;4.87;;;11.50;99.90;;;;;;5012959;28;20414;-72
2022/04/14 04:58:45;;;;;;;6.17;4.70;;;11.60;99.90;;;;;;5012735;28;20275;-70
2022/04/14 05:01:12;;;;;;;8.23;4.07;;;11.60;99.90;;;;;;5010778;28;20172;-71
2022/04/14 05:03:37;;;;;;;5.90;4.83;;;11.70;99.90;;;;;;5010727;28;20529;-71
2022/04/14 05:06:03;;;;;;;4.60;3.80;;;11.70;99.90;;;;;;5013696;28;20515;-70
2022/04/14 05:08:28;;;;;;;6.37;4.13;;;11.70;99.90;;;;;;5013629;28;20263;-70
2022/04/14 05:10:54;;;;;;;4.97;3.13;;;11.80;99.90;;;;;;5013864;28;20548;-70
2022/04/14 05:13:19;;;;;;;3.80;3.50;;;11.90;99.90;;;;;;5014007;28;20184;-71
2022/04/14 05:15:45;;;;;;;8.10;5.00;;;11.90;99.90;;;;;;5013902;28;20172;-72
2022/04/14 05:18:10;;;;;;;8.43;4.97;;;11.90;99.90;;;;;;5012646;28;20259;-71
2022/04/14 05:20:36;;;;;;;4.40;4.00;;;12.00;99.90;;;;;;5013868;28;20610;-72
2022/04/14 05:23:03;;;;;;;5.00;4.37;;;12.00;99.90;;;;;;5013592;28;20204;-72
2022/04/14 05:25:29;;;;;;;8.33;4.30;;;12.10;99.90;;;;;;5013473;28;20192;-72
2022/04/14 05:27:55;;;;;;;5.77;4.10;;;12.20;99.90;;;;;;5013478;28;20417;-71
2022/04/14 05:30:20;;;;;;;7.70;4.03;;;12.20;99.90;;;;;;5012147;28;20204;-72
2022/04/14 05:32:46;;;;;;;6.80;4.70;;;12.20;99.90;;;;;;5013596;28;20176;-72
2022/04/14 05:35:11;;;;;;;4.60;3.97;;;12.30;99.90;;;;;;5013221;28;20683;-71
2022/04/14 05:37:37;;;;;;;4.70;4.30;;;12.30;99.90;;;;;;5013448;28;20179;-72
2022/04/14 05:40:04;;;;;;;4.57;4.07;;;12.40;99.90;;;;;;5013380;28;20903;-71
2022/04/14 05:42:29;;;;;;;5.50;4.10;;;12.40;99.90;;;;;;5013224;28;20199;-71
2022/04/14 05:44:55;;;;;;;5.10;4.60;;;12.50;99.90;;;;;;5013034;28;20416;-71
2022/04/14 05:47:23;;;;;;;5.30;4.20;;;12.60;99.90;;;;;;5013210;28;20178;-71
2022/04/14 05:49:49;;;;;;;7.07;4.27;;;12.70;99.90;;;;;;5013165;28;20219;-73
2022/04/14 05:52:15;;;;;;;4.37;4.00;;;12.80;99.90;;;;;;5012897;28;20403;-72
2022/04/14 05:54:40;;;;;;;4.77;4.27;;;12.90;99.90;;;;;;5012862;28;20407;-71
2022/04/14 05:57:06;;;;;;;4.90;4.20;;;12.90;99.90;;;;;;5012984;28;20235;-71
2022/04/14 05:59:31;;;;;;;4.70;3.60;;;13.10;99.90;;;;;;5012889;28;20192;-72
2022/04/14 06:01:57;;;;;;;7.80;5.03;;;13.30;99.90;;;;;;5012702;28;20208;-72
2022/04/14 06:04:23;;;;;;;8.33;4.30;;;13.20;99.90;;;;;;5011921;28;20665;-72
2022/04/14 06:06:48;;;;;;;5.07;4.57;;;13.30;99.90;;;;;;5012883;28;20255;-72
2022/04/14 06:09:14;;;;;;;8.30;4.67;;;13.30;99.90;;;;;;5012639;28;20538;-70
2022/04/14 06:11:39;;;;;;;5.63;4.20;;;13.40;99.90;;;;;;5012779;28;20179;-73
2022/04/14 06:14:05;;;;;;;5.03;4.50;;;13.40;99.90;;;;;;5012721;28;20671;-73
2022/04/14 06:16:31;;;;;;;6.50;4.67;;;13.70;99.90;;;;;;5013151;28;20168;-72
2022/04/14 06:18:57;;;;;;;6.67;4.60;;;13.90;99.90;;;;;;5013028;28;20617;-72
2022/04/14 06:21:22;;;;;;;4.63;3.87;;;14.00;99.90;;;;;;5012740;28;20407;-72
2022/04/14 06:23:49;;;;;;;5.27;4.10;;;14.10;99.90;;;;;;5012151;28;20291;-71
2022/04/14 06:26:15;;;;;;;5.33;4.07;;;14.20;99.90;;;;;;5012387;28;20591;-71
2022/04/14 06:28:42;;;;;;;5.93;4.70;;;14.30;99.90;;;;;;5012178;28;20459;-71
2022/04/14 06:31:07;;;;;;;4.60;4.03;;;14.60;99.90;;;;;;5012370;28;20639;-72
2022/04/14 06:33:33;;;;;;;4.03;3.47;;;14.70;99.90;;;;;;4997918;28;20439;-70
2022/04/14 06:35:59;;;;;;;5.67;3.97;;;14.90;99.90;;;;;;5012342;28;20170;-72
2022/04/14 06:38:26;;;;;;;5.60;3.70;;;15.00;99.90;;;;;;5007479;28;20229;-70
2022/04/14 06:40:51;;;;;;;4.60;3.90;;;15.50;99.90;;;;;;5012257;28;20177;-72
2022/04/14 06:43:17;;;;;;;3.40;2.77;;;16.00;99.90;;;;;;5012557;28;20452;-70
2022/04/14 06:45:42;;;;;;;4.43;4.00;;;16.40;99.90;;;;;;5012076;28;20175;-71
2022/04/14 06:48:09;;;;;;;4.90;3.97;;;16.40;99.90;;;;;;5012277;28;20178;-71
2022/04/14 06:50:35;;;;;;;4.50;4.00;;;16.50;99.90;;;;;;5012255;28;20543;-71
2022/04/14 06:53:00;;;;;;;3.47;3.17;;;16.50;99.90;;;;;;5012142;28;20442;-72
2022/04/14 06:55:25;;;;;;;4.50;3.40;;;17.00;99.90;;;;;;5012354;28;20613;-71
2022/04/14 06:57:51;;;;;;;4.40;4.00;;;16.90;99.90;;;;;;5011820;28;20213;-72
2022/04/14 07:00:18;;;;;;;4.33;3.93;;;17.10;99.90;;;;;;5012056;28;20198;-72
2022/04/14 07:02:48;;;;;;;4.27;3.53;;;17.30;99.90;;;;;;5011755;28;20216;-72
2022/04/14 07:05:13;;;;;;;6.23;4.40;;;17.30;99.90;;;;;;5011971;28;20854;-72
2022/04/14 07:07:39;;;;;;;4.47;3.57;;;17.30;99.90;;;;;;5011973;28;20487;-73
2022/04/14 07:10:05;;;;;;;3.77;3.40;;;17.70;99.90;;;;;;5011457;28;20202;-74
2022/04/14 07:12:30;;;;;;;3.90;3.57;;;17.70;99.90;;;;;;5012044;28;20548;-72
2022/04/14 07:14:56;;;;;;;4.77;3.43;;;18.00;99.90;;;;;;5011647;28;20226;-72
2022/04/14 07:17:22;;;;;;;7.17;4.23;;;18.00;99.90;;;;;;5011562;28;20177;-72
2022/04/14 07:19:48;;;;;;;3.27;3.07;;;18.20;99.90;;;;;;5011834;28;20215;-71
2022/04/14 07:22:21;;;;;;;5.40;4.10;;;19.40;99.90;;;;;;5011624;28;20519;-73
2022/04/14 07:24:48;;;;;;;4.60;4.20;;;19.10;99.90;;;;;;5015812;28;20261;-72
2022/04/14 07:27:14;;;;;;;4.47;3.83;;;18.90;99.90;;;;;;5031658;28;20437;-72
2022/04/14 07:29:40;;;;;;;3.93;3.57;;;20.00;99.90;;;;;;5031308;28;20448;-72
2022/04/14 07:32:05;;;;;;;3.53;3.23;;;19.70;99.90;;;;;;5024689;28;21060;-71
2022/04/14 07:34:31;;;;;;;4.37;3.97;;;18.80;99.90;;;;;;5011963;28;20621;-72
2022/04/14 07:36:56;;;;;;;3.60;3.30;;;18.60;99.90;;;;;;5011416;28;20179;-71
2022/04/14 07:39:22;;;;;;;3.60;3.10;;;18.20;99.90;;;;;;5011397;28;20251;-72
2022/04/14 07:41:47;;;;;;;4.73;4.17;;;18.90;99.90;;;;;;5012736;28;20178;-72
2022/04/14 07:44:12;;;;;;;4.30;3.37;;;19.80;99.90;;;;;;5015263;28;20184;-71
2022/04/14 07:46:38;;;;;;;4.37;3.50;;;19.30;99.90;;;;;;5015206;28;20724;-72
2022/04/14 07:49:05;;;;;;;3.43;3.13;;;19.70;99.90;;;;;;5015549;28;20198;-70
2022/04/14 07:51:30;;;;;;;3.50;3.20;;;19.30;99.90;;;;;;5015497;28;20177;-71
2022/04/14 07:53:56;;;;;;;3.43;3.03;;;19.30;99.90;;;;;;5015302;28;20417;-71
2022/04/14 07:56:22;;;;;;;3.90;3.00;;;19.10;99.90;;;;;;5015304;28;20194;-70
2022/04/14 07:58:49;;;;;;;3.03;2.77;;;19.60;99.90;;;;;;5018712;28;20702;-70
2022/04/14 08:01:15;;;;;;;3.30;3.00;;;20.70;99.90;;;;;;5018271;28;20423;-71
2022/04/14 08:03:40;;;;;;;3.10;2.83;;;21.40;99.90;;;;;;5014788;28;21041;-71
2022/04/14 08:06:06;;;;;;;3.07;2.77;;;20.50;99.90;;;;;;5014841;28;20417;-72
2022/04/14 08:08:31;;;;;;;3.20;2.90;;;19.70;99.90;;;;;;5014833;28;20199;-71
2022/04/14 08:11:03;;;;;;;3.27;2.90;;;19.70;99.90;;;;;;5016171;28;20538;-70
2022/04/14 08:13:30;;;;;;;3.57;2.93;;;19.40;99.90;;;;;;5015307;28;20173;-71
2022/04/14 08:16:01;;;;;;;3.80;1.93;;;19.20;99.90;;;;;;5014798;28;20418;-71
2022/04/14 08:18:26;;;;;;;4.63;3.13;;;19.30;99.90;;;;;;5014987;28;20407;-71
2022/04/14 08:20:52;;;;;;;5.50;2.87;;;19.40;99.90;;;;;;5015345;28;20430;-71
2022/04/14 08:23:18;;;;;;;2.90;2.60;;;19.80;99.90;;;;;;5014033;28;20595;-72
2022/04/14 08:25:43;;;;;;;2.70;2.50;;;19.90;99.90;;;;;;5020696;28;20181;-71
2022/04/14 08:28:08;;;;;;;2.17;1.90;;;20.00;99.90;;;;;;5035526;28;20165;-71
2022/04/14 08:30:36;;;;;;;3.07;2.00;;;19.80;99.90;;;;;;5027866;28;20183;-71
2022/04/14 08:33:05;;;;;;;2.07;1.87;;;20.30;99.90;;;;;;5016745;28;20183;-71
2022/04/14 08:35:32;;;;;;;4.33;2.97;;;20.90;99.90;;;;;;5019206;28;20820;-70
2022/04/14 08:37:58;;;;;;;3.97;2.83;;;20.30;99.90;;;;;;5019421;28;21008;-71
2022/04/14 08:40:29;;;;;;;2.50;2.07;;;20.80;99.90;;;;;;5015853;28;20471;-69
2022/04/14 08:43:01;;;;;;;1.97;1.40;;;20.90;99.90;;;;;;5014471;28;20203;-70
2022/04/14 08:45:31;;;;;;;2.73;2.33;;;19.80;99.90;;;;;;4996702;28;20451;-73
2022/04/14 08:48:00;;;;;;;2.30;2.10;;;19.80;99.90;;;;;;5014626;28;20406;-72
2022/04/14 08:50:26;;;;;;;2.13;1.93;;;20.00;99.90;;;;;;5013981;28;20465;-72
2022/04/14 08:52:52;;;;;;;2.30;2.10;;;19.80;99.90;;;;;;5013333;28;20436;-71
2022/04/14 08:55:18;;;;;;;1.83;1.67;;;20.70;99.90;;;;;;5012870;28;20417;-71
2022/04/14 08:57:44;;;;;;;2.23;2.03;;;20.10;99.90;;;;;;5014374;28;20646;-71
2022/04/14 09:00:12;;;;;;;1.70;1.60;;;20.70;99.90;;;;;;5014020;28;20545;-71
2022/04/14 09:02:38;;;;;;;1.73;1.63;;;21.10;99.90;;;;;;5013466;28;20558;-71
2022/04/14 09:05:05;;;;;;;2.40;2.17;;;21.30;99.90;;;;;;5013601;28;20465;-71
2022/04/14 09:07:31;;;;;;;1.90;1.70;;;20.30;99.90;;;;;;5014032;28;20419;-71
2022/04/14 09:09:57;;;;;;;2.53;2.10;;;19.80;99.90;;;;;;5013474;28;20467;-71
2022/04/14 09:12:23;;;;;;;2.80;2.07;;;18.80;99.90;;;;;;5012024;28;20480;-72
2022/04/14 09:14:49;;;;;;;9.07;1.90;;;19.80;99.90;;;;;;5013993;28;20198;-71
2022/04/14 09:17:15;;;;;;;2.83;2.00;;;20.60;99.90;;;;;;5013942;28;20431;-72
2022/04/14 09:19:44;;;;;;;2.47;2.27;;;19.80;99.90;;;;;;5014062;28;20193;-71
2022/04/14 09:22:12;;;;;;;1.97;1.87;;;20.40;99.90;;;;;;5014921;28;20458;-71
2022/04/14 09:24:57;;;;;;;1.87;1.67;;;20.20;99.90;;;;;;5017444;28;20433;-71
2022/04/14 09:27:39;;;;;;;3.03;2.30;;;20.00;99.90;;;;;;5018754;28;20420;-72
2022/04/14 09:30:06;;;;;;;1.47;1.37;;;20.40;99.90;;;;;;5018793;28;20480;-71
2022/04/14 09:32:38;;;;;;;1.10;1.00;;;20.10;99.90;;;;;;5056063;23;20495;-67
2022/04/14 09:35:16;;;;;;;1.37;1.10;;;19.70;99.90;;;;;;5045039;28;20404;-67
2022/04/14 09:37:41;;;;;;;1.00;0.90;;;20.20;99.90;;;;;;5052917;28;20398;-66
2022/04/14 09:40:09;;;;;;;2.37;2.17;;;20.20;99.90;;;;;;5052228;28;20931;-66
2022/04/14 09:42:49;;;;;;;1.23;1.10;;;20.10;99.90;;;;;;5035038;28;20673;-67
2022/04/14 09:45:25;;;;;;;1.20;1.10;;;20.00;99.90;;;;;;5032962;28;20421;-66
2022/04/14 09:47:52;;;;;;;1.50;1.40;;;20.00;99.90;;;;;;5012758;28;20554;-66
2022/04/14 09:50:34;;;;;;;1.50;1.40;;;19.80;99.90;;;;;;5012732;28;20400;-66
2022/04/14 09:53:03;;;;;;;1.30;1.20;;;19.50;99.90;;;;;;5012829;28;20412;-66
2022/04/14 09:55:29;;;;;;;1.87;1.50;;;19.80;99.90;;;;;;5012337;28;21021;-66
2022/04/14 09:58:10;;;;;;;1.53;1.27;;;19.40;99.90;;;;;;5012998;28;20499;-65
2022/04/14 10:00:46;;;;;;;1.87;1.30;;;19.10;99.90;;;;;;5013191;28;20586;-66
2022/04/14 10:03:15;;;;;;;1.67;1.57;;;19.00;99.90;;;;;;5032182;28;20856;-66
2022/04/14 10:05:41;;;;;;;2.13;1.93;;;19.30;99.90;;;;;;5032225;28;20406;-66
2022/04/14 10:08:08;;;;;;;2.53;2.03;;;18.50;99.90;;;;;;5031117;28;20421;-68
2022/04/14 10:10:38;;;;;;;3.43;3.00;;;17.90;99.90;;;;;;5032466;28;20924;-68
2022/04/14 10:13:10;;;;;;;2.47;2.30;;;17.70;99.90;;;;;;5032836;28;20417;-68
2022/04/14 10:15:38;;;;;;;4.83;2.20;;;17.50;99.90;;;;;;5032545;28;20473;-68
2022/04/14 10:18:09;;;;;;;3.00;2.47;;;17.60;99.90;;;;;;5031603;28;20455;-68
2022/04/14 10:20:37;;;;;;;3.47;2.30;;;17.30;99.90;;;;;;5032487;28;20406;-68
2022/04/14 10:23:03;;;;;;;2.20;2.10;;;17.30;99.90;;;;;;5031428;28;20450;-68
2022/04/14 10:25:30;;;;;;;2.70;2.43;;;17.40;99.90;;;;;;5031519;28;20406;-68
2022/04/14 10:27:59;;;;;;;1.80;1.70;;;17.60;99.90;;;;;;5031575;28;20573;-68
2022/04/14 10:30:26;;;;;;;2.20;2.00;;;17.80;99.90;;;;;;5031573;28;20516;-67
2022/04/14 10:32:57;;;;;;;1.77;1.60;;;18.40;99.90;;;;;;5031701;28;20443;-66
2022/04/14 10:35:25;;;;;;;1.80;1.60;;;18.70;99.90;;;;;;5033191;28;20406;-66
2022/04/14 10:38:13;;;;;;;2.10;1.63;;;18.60;99.90;;;;;;5031470;28;20421;-68
2022/04/14 10:40:47;;;;;;;3.23;1.60;;;18.30;99.90;;;;;;5030984;28;20415;-67
2022/04/14 10:43:17;;;;;;;2.10;1.37;;;18.30;99.90;;;;;;5031560;28;20948;-69
2022/04/14 10:45:57;;;;;;;1.63;1.30;;;18.70;99.90;;;;;;5031607;28;20410;-66
2022/04/14 10:48:26;;;;;;;2.60;1.20;;;18.40;99.90;;;;;;5030949;28;20939;-66
2022/04/14 10:51:21;;;;;;;1.33;1.23;;;18.70;99.90;;;;;;5031138;28;20491;-66
2022/04/14 10:53:57;;;;;;;1.30;1.20;;;18.50;99.90;;;;;;5031356;28;20489;-66
2022/04/14 10:56:38;;;;;;;1.30;1.20;;;18.90;99.90;;;;;;5031128;28;20954;-68
2022/04/14 10:59:05;;;;;;;1.57;1.10;;;18.00;99.90;;;;;;5031161;28;20413;-66
2022/04/14 11:01:50;;;;;;;2.10;1.13;;;17.60;99.90;;;;;;5031236;28;20445;-66
2022/04/14 11:04:32;;;;;;;1.23;0.97;;;17.90;99.90;;;;;;5031634;28;20445;-66
2022/04/14 11:07:08;;;;;;;2.70;1.20;;;17.90;99.90;;;;;;5031433;28;20481;-68
2022/04/14 11:09:40;;;;;;;1.60;1.33;;;18.10;99.90;;;;;;5031391;28;20739;-67
2022/04/14 11:12:07;;;;;;;1.60;1.37;;;17.90;99.90;;;;;;5031243;28;20479;-67
2022/04/14 11:14:35;;;;;;;0.90;0.70;;;17.80;99.90;;;;;;5031346;28;20514;-67
2022/04/14 11:17:01;;;;;;;1.83;1.53;;;17.50;99.90;;;;;;5033297;28;20407;-69
2022/04/14 11:19:27;;;;;;;0.97;0.80;;;17.00;99.90;;;;;;5035333;28;20418;-67
2022/04/14 11:22:01;;;;;;;1.47;1.37;;;17.10;99.90;;;;;;5035323;28;20422;-67
2022/04/14 11:24:35;;;;;;;1.20;1.00;;;17.50;99.90;;;;;;5035795;28;20756;-67
2022/04/14 11:27:13;;;;;;;1.20;1.10;;;16.80;99.90;;;;;;5035393;28;20445;-67
2022/04/14 11:29:48;;;;;;;1.40;1.27;;;17.00;99.90;;;;;;5035546;28;20764;-67
2022/04/14 11:32:15;;;;;;;1.10;1.00;;;17.00;99.90;;;;;;5035158;28;20518;-67
2022/04/14 11:34:41;;;;;;;1.10;1.00;;;17.20;99.90;;;;;;5035064;28;20416;-67
2022/04/14 11:37:42;;;;;;;2.23;2.13;;;16.60;99.90;;;;;;5035542;28;20474;-66
2022/04/14 11:40:21;;;;;;;0.80;0.80;;;16.80;99.90;;;;;;5015699;28;20493;-67
2022/04/14 11:42:51;;;;;;;1.80;1.03;;;16.60;99.90;;;;;;5015389;28;20509;-67
2022/04/14 11:45:24;;;;;;;1.17;1.07;;;16.90;99.90;;;;;;5015370;28;20425;-67
2022/04/14 11:48:00;;;;;;;0.77;0.67;;;16.80;99.90;;;;;;5019993;28;21041;-68
2022/04/14 11:50:27;;;;;;;1.00;0.90;;;16.80;99.90;;;;;;5035105;28;20916;-67
2022/04/14 11:53:01;;;;;;;1.20;1.10;;;16.80;99.90;;;;;;5034655;28;20519;-68
2022/04/14 11:55:38;;;;;;;3.10;1.30;;;16.60;99.90;;;;;;5034533;28;20446;-68
2022/04/14 11:58:15;;;;;;;1.00;0.90;;;16.60;99.90;;;;;;5034890;28;20458;-68
2022/04/14 12:00:50;;;;;;;0.93;0.93;;;16.60;99.90;;;;;;5034452;28;20909;-67
2022/04/14 12:03:30;;;;;;;1.27;1.17;;;16.50;99.90;;;;;;5034383;28;20455;-67
2022/04/14 12:06:02;;;;;;;3.10;1.33;;;16.70;99.90;;;;;;5034292;28;20420;-67
2022/04/14 12:08:28;;;;;;;17.40;12.07;;;16.60;99.90;;;;;;5033772;28;20470;-67
2022/04/14 12:10:53;;;;;;;3.10;2.80;;;16.80;99.90;;;;;;5032916;28;20432;-67
2022/04/14 12:13:21;;;;;;;2.37;1.60;;;16.10;99.90;;;;;;5034184;28;20584;-67
2022/04/14 12:16:00;;;;;;;1.63;1.37;;;16.40;99.90;;;;;;5033658;28;20190;-67
2022/04/14 12:18:26;;;;;;;1.20;1.10;;;15.50;99.90;;;;;;5034007;28;20510;-66
2022/04/14 12:20:51;;;;;;;1.47;1.37;;;15.30;99.90;;;;;;5034302;28;20465;-65
2022/04/14 12:23:17;;;;;;;1.17;1.07;;;15.00;99.90;;;;;;5033318;28;20199;-67
2022/04/14 12:25:42;;;;;;;1.60;1.50;;;14.90;99.90;;;;;;5034029;28;20177;-67
2022/04/14 12:28:08;;;;;;;1.73;1.03;;;15.10;99.90;;;;;;5033909;28;20217;-67
2022/04/14 12:30:34;;;;;;;1.60;1.50;;;15.30;99.90;;;;;;5032739;28;20207;-67
2022/04/14 12:33:05;;;;;;;3.70;1.77;;;15.00;99.90;;;;;;5032332;28;20192;-67
2022/04/14 12:35:38;;;;;;;1.50;1.20;;;15.10;99.90;;;;;;5033104;28;20793;-67
2022/04/14 12:38:17;;;;;;;1.93;1.70;;;15.20;99.90;;;;;;5033291;28;20786;-67
2022/04/14 12:41:04;;;;;;;2.90;1.90;;;15.00;99.90;;;;;;5033473;28;20442;-66
2022/04/14 12:43:37;;;;;;;3.20;2.20;;;14.80;99.90;;;;;;5013583;28;20454;-65
2022/04/14 12:46:20;;;;;;;2.37;1.77;;;14.80;99.90;;;;;;5013958;28;20775;-65
2022/04/14 12:48:46;;;;;;;2.00;1.57;;;14.70;99.90;;;;;;5013951;28;20837;-65